Time,TemperatureF,DewpointF,PressureIn,WindDirection,WindDirectionDegrees,WindSpeedMPH,WindSpeedGustMPH,Humidity,HourlyPrecipIn,Conditions,Clouds,dailyrainin,SoftwareType,DateUTC
2013-03-04 00:00:00,29.8,24.0,29.53,NNW,348,3.0,16.0,78,0.00,,,0.03,weatherlink.com 1.10,2013-03-04 05:00:00,
2013-03-04 00:15:00,29.7,24.0,29.54,ENE,65,2.0,7.0,78,0.00,,,0.00,weatherlink.com 1.10,2013-03-04 05:15:00,
2013-03-04 00:30:00,29.6,24.0,29.54,WNW,303,2.0,9.0,78,0.00,,,0.00,weatherlink.com 1.10,2013-03-04 05:30:00,
2013-03-04 00:45:00,29.4,23.0,29.54,NW,307,5.0,10.0,78,0.00,,,0.00,weatherlink.com 1.10,2013-03-04 05:45:00,
2013-03-04 01:00:00,29.3,23.0,29.54,ENE,65,4.0,5.0,78,0.00,,,0.00,weatherlink.com 1.10,2013-03-04 06:00:00,
2013-03-04 01:15:00,29.1,23.0,29.54,North,360,7.0,12.0,78,0.00,,,0.00,weatherlink.com 1.10,2013-03-04 06:15:00,
2013-03-04 01:30:00,28.8,23.0,29.54,NNE,26,6.0,15.0,78,0.00,,,0.00,weatherlink.com 1.10,2013-03-04 06:30:00,
2013-03-04 01:45:00,28.7,23.0,29.54,NNW,346,16.0,16.0,78,0.00,,,0.00,weatherlink.com 1.10,2013-03-04 06:45:00,
2013-03-04 02:00:00,28.6,23.0,29.53,North,360,6.0,14.0,78,0.00,,,0.00,weatherlink.com 1.10,2013-03-04 07:00:00,
2013-03-04 02:15:00,28.5,22.0,29.53,NNW,338,5.0,13.0,78,0.00,,,0.00,weatherlink.com 1.10,2013-03-04 07:15:00,
2013-03-04 02:30:00,28.5,22.0,29.53,WNW,300,3.0,15.0,78,0.00,,,0.00,weatherlink.com 1.10,2013-03-04 07:30:00,
2013-03-04 02:45:00,28.3,22.0,29.53,North,355,5.0,19.0,78,0.00,,,0.00,weatherlink.com 1.10,2013-03-04 07:45:00,
2013-03-04 03:00:00,28.1,22.0,29.53,NNW,344,3.0,14.0,79,0.00,,,0.00,weatherlink.com 1.10,2013-03-04 08:00:00,
2013-03-04 03:15:00,28.1,22.0,29.53,NNW,332,0.0,10.0,79,0.00,,,0.00,weatherlink.com 1.10,2013-03-04 08:15:00,
2013-03-04 03:30:00,28.0,22.0,29.52,NNE,32,1.0,12.0,78,0.00,,,0.00,weatherlink.com 1.10,2013-03-04 08:30:00,
2013-03-04 03:45:00,27.9,22.0,29.53,NNE,33,1.0,12.0,78,0.00,,,0.00,weatherlink.com 1.10,2013-03-04 08:45:00,
2013-03-04 04:00:00,27.8,22.0,29.54,North,360,4.0,16.0,78,0.00,,,0.00,weatherlink.com 1.10,2013-03-04 09:00:00,
2013-03-04 04:15:00,27.6,22.0,29.55,NNW,343,5.0,8.0,79,0.00,,,0.00,weatherlink.com 1.10,2013-03-04 09:15:00,
2013-03-04 04:30:00,27.5,22.0,29.55,NNW,336,2.0,14.0,78,0.00,,,0.00,weatherlink.com 1.10,2013-03-04 09:30:00,
2013-03-04 04:45:00,27.4,22.0,29.54,NNW,335,2.0,14.0,79,0.00,,,0.00,weatherlink.com 1.10,2013-03-04 09:45:00,
2013-03-04 05:00:00,27.2,22.0,29.54,NW,317,1.0,11.0,79,0.00,,,0.00,weatherlink.com 1.10,2013-03-04 10:00:00,
2013-03-04 05:15:00,27.2,22.0,29.54,WNW,290,0.0,8.0,79,0.00,,,0.00,weatherlink.com 1.10,2013-03-04 10:15:00,
2013-03-04 05:30:00,27.1,21.0,29.54,NNE,29,7.0,16.0,79,0.00,,,0.00,weatherlink.com 1.10,2013-03-04 10:30:00,
2013-03-04 05:46:00,27.1,21.0,29.54,NNW,341,4.0,13.0,79,0.00,,,0.00,weatherlink.com 1.10,2013-03-04 10:46:00,
2013-03-04 06:01:00,27.0,22.0,29.55,NNW,327,1.0,14.0,80,0.00,,,0.00,weatherlink.com 1.10,2013-03-04 11:01:00,
2013-03-04 06:16:00,27.1,21.0,29.55,West,281,7.0,14.0,79,0.00,,,0.00,weatherlink.com 1.10,2013-03-04 11:16:00,
2013-03-04 06:31:00,27.1,22.0,29.55,NW,309,2.0,16.0,80,0.00,,,0.00,weatherlink.com 1.10,2013-03-04 11:31:00,
2013-03-04 06:46:00,27.2,22.0,29.54,NE,40,3.0,13.0,79,0.00,,,0.00,weatherlink.com 1.10,2013-03-04 11:46:00,
2013-03-04 07:01:00,27.4,22.0,29.54,NNW,339,3.0,13.0,79,0.00,,,0.00,weatherlink.com 1.10,2013-03-04 12:01:00,
2013-03-04 07:16:00,27.6,22.0,29.55,NNE,15,7.0,15.0,79,0.00,,,0.00,weatherlink.com 1.10,2013-03-04 12:16:00,
2013-03-04 07:31:00,27.9,22.0,29.55,NNE,19,5.0,7.0,78,0.00,,,0.00,weatherlink.com 1.10,2013-03-04 12:31:00,
2013-03-04 07:46:00,28.1,22.0,29.55,South,183,0.0,22.0,78,0.00,,,0.00,weatherlink.com 1.10,2013-03-04 12:46:00,
2013-03-04 08:01:00,28.2,22.0,29.55,North,349,3.0,11.0,77,0.00,,,0.00,weatherlink.com 1.10,2013-03-04 13:01:00,
2013-03-04 08:16:00,28.6,22.0,29.56,NNE,29,2.0,18.0,76,0.00,,,0.00,weatherlink.com 1.10,2013-03-04 13:16:00,
2013-03-04 08:31:00,28.5,22.0,29.55,North,360,3.0,15.0,76,0.00,,,0.00,weatherlink.com 1.10,2013-03-04 13:31:00,
2013-03-04 08:46:00,28.5,22.0,29.56,NNE,25,6.0,16.0,76,0.00,,,0.00,weatherlink.com 1.10,2013-03-04 13:46:00,
2013-03-04 09:01:00,28.7,22.0,29.55,NNE,28,4.0,17.0,76,0.00,,,0.00,weatherlink.com 1.10,2013-03-04 14:01:00,
2013-03-04 09:16:00,28.9,22.0,29.54,NNW,341,13.0,19.0,75,0.00,,,0.00,weatherlink.com 1.10,2013-03-04 14:16:00,
2013-03-04 09:31:00,29.4,22.0,29.55,West,270,6.0,15.0,75,0.00,,,0.00,weatherlink.com 1.10,2013-03-04 14:31:00,
2013-03-04 09:46:00,30.5,23.0,29.55,NNW,342,8.0,14.0,73,0.00,,,0.00,weatherlink.com 1.10,2013-03-04 14:46:00,
2013-03-04 10:01:00,30.2,23.0,29.55,WNW,288,3.0,18.0,73,0.00,,,0.00,weatherlink.com 1.10,2013-03-04 15:01:00,
2013-03-04 10:16:00,30.3,23.0,29.55,NNE,16,4.0,14.0,73,0.00,,,0.00,weatherlink.com 1.10,2013-03-04 15:16:00,
2013-03-04 10:31:00,30.1,23.0,29.55,East,101,1.0,14.0,75,0.00,,,0.00,weatherlink.com 1.10,2013-03-04 15:31:00,
2013-03-04 10:46:00,30.6,23.0,29.55,NNE,32,6.0,10.0,73,0.00,,,0.00,weatherlink.com 1.10,2013-03-04 15:46:00,
2013-03-04 11:01:00,31.1,23.0,29.54,NE,38,3.0,15.0,72,0.00,,,0.00,weatherlink.com 1.10,2013-03-04 16:01:00,
2013-03-04 11:16:00,31.6,23.0,29.54,WNW,302,9.0,10.0,71,0.00,,,0.00,weatherlink.com 1.10,2013-03-04 16:16:00,
2013-03-04 11:31:00,31.7,23.0,29.54,NNE,25,4.0,19.0,70,0.00,,,0.00,weatherlink.com 1.10,2013-03-04 16:31:00,
2013-03-04 11:46:00,31.8,23.0,29.54,NW,315,3.0,15.0,69,0.00,,,0.00,weatherlink.com 1.10,2013-03-04 16:46:00,
2013-03-04 12:01:00,31.8,23.0,29.54,NNE,18,5.0,12.0,70,0.00,,,0.00,weatherlink.com 1.10,2013-03-04 17:01:00,
2013-03-04 12:16:00,31.3,24.0,29.54,NNW,331,0.0,11.0,73,0.00,,,0.00,weatherlink.com 1.10,2013-03-04 17:16:00,
2013-03-04 12:31:00,31.5,24.0,29.53,North,5,0.0,10.0,73,0.00,,,0.00,weatherlink.com 1.10,2013-03-04 17:31:00,
2013-03-04 12:46:00,32.1,24.0,29.53,North,10,2.0,10.0,73,0.00,,,0.00,weatherlink.com 1.10,2013-03-04 17:46:00,
2013-03-04 13:01:00,32.9,26.0,29.51,North,349,4.0,12.0,76,0.00,,,0.00,weatherlink.com 1.10,2013-03-04 18:01:00,
2013-03-04 13:16:00,33.5,25.0,29.52,North,360,3.0,13.0,70,0.00,,,0.00,weatherlink.com 1.10,2013-03-04 18:16:00,
2013-03-04 13:31:00,34.2,25.0,29.52,North,5,2.0,10.0,69,0.00,,,0.00,weatherlink.com 1.10,2013-03-04 18:31:00,
2013-03-04 13:46:00,33.9,25.0,29.52,NNW,345,3.0,12.0,69,0.00,,,0.00,weatherlink.com 1.10,2013-03-04 18:46:00,
2013-03-04 14:01:00,33.8,25.0,29.53,North,355,0.0,15.0,70,0.00,,,0.00,weatherlink.com 1.10,2013-03-04 19:01:00,
2013-03-04 14:16:00,33.9,25.0,29.53,West,276,4.0,15.0,69,0.00,,,0.00,weatherlink.com 1.10,2013-03-04 19:16:00,
2013-03-04 14:31:00,34.0,25.0,29.53,WNW,301,1.0,11.0,70,0.00,,,0.00,weatherlink.com 1.10,2013-03-04 19:31:00,
2013-03-04 14:46:00,33.8,25.0,29.53,NNE,33,7.0,14.0,69,0.00,,,0.00,weatherlink.com 1.10,2013-03-04 19:46:00,
2013-03-04 15:01:00,33.9,24.0,29.54,NNE,14,0.0,11.0,68,0.00,,,0.00,weatherlink.com 1.10,2013-03-04 20:01:00,
2013-03-04 15:16:00,33.6,24.0,29.54,ENE,67,3.0,16.0,68,0.00,,,0.00,weatherlink.com 1.10,2013-03-04 20:16:00,
2013-03-04 15:31:00,32.9,24.0,29.55,North,11,14.0,15.0,70,0.00,,,0.00,weatherlink.com 1.10,2013-03-04 20:31:00,
2013-03-04 15:46:00,32.2,24.0,29.55,ESE,119,4.0,20.0,72,0.00,,,0.00,weatherlink.com 1.10,2013-03-04 20:46:00,
2013-03-04 16:01:00,31.9,24.0,29.55,NNW,337,1.0,8.0,73,0.00,,,0.00,weatherlink.com 1.10,2013-03-04 21:01:00,
2013-03-04 16:16:00,31.5,24.0,29.56,North,355,4.0,9.0,74,0.00,,,0.00,weatherlink.com 1.10,2013-03-04 21:16:00,
2013-03-04 16:31:00,30.9,24.0,29.57,North,355,13.0,13.0,75,0.00,,,0.00,weatherlink.com 1.10,2013-03-04 21:31:00,
2013-03-04 16:46:00,30.7,24.0,29.57,NNW,334,0.0,16.0,75,0.00,,,0.00,weatherlink.com 1.10,2013-03-04 21:46:00,
2013-03-04 17:01:00,30.5,23.0,29.58,NNE,25,2.0,18.0,74,0.00,,,0.00,weatherlink.com 1.10,2013-03-04 22:01:00,
2013-03-04 17:31:00,29.3,24.0,29.60,NNE,30,7.0,19.0,79,0.00,,,0.00,weatherlink.com 1.10,2013-03-04 22:31:00,
2013-03-04 17:46:00,29.0,23.0,29.61,NE,34,9.0,18.0,78,0.00,,,0.00,weatherlink.com 1.10,2013-03-04 22:46:00,
2013-03-04 18:01:00,28.9,22.0,29.61,NNE,28,13.0,18.0,76,0.00,,,0.00,weatherlink.com 1.10,2013-03-04 23:01:00,
2013-03-04 18:16:00,29.0,22.0,29.60,NNW,342,14.0,22.0,75,0.00,,,0.00,weatherlink.com 1.10,2013-03-04 23:16:00,
2013-03-04 18:31:00,28.8,22.0,29.60,NNE,24,12.0,24.0,76,0.00,,,0.00,weatherlink.com 1.10,2013-03-04 23:31:00,
2013-03-04 18:46:00,28.7,22.0,29.61,WNW,286,16.0,22.0,77,0.00,,,0.00,weatherlink.com 1.10,2013-03-04 23:46:00,
2013-03-04 19:02:00,28.3,22.0,29.62,North,360,11.0,25.0,78,0.00,,,0.00,weatherlink.com 1.10,2013-03-05 00:02:00,
2013-03-04 19:17:00,28.0,22.0,29.64,NE,39,6.0,18.0,78,0.00,,,0.00,weatherlink.com 1.10,2013-03-05 00:17:00,
2013-03-04 19:32:00,27.7,22.0,29.64,North,5,7.0,27.0,79,0.00,,,0.00,weatherlink.com 1.10,2013-03-05 00:32:00,
2013-03-04 19:47:00,27.6,22.0,29.64,NNE,22,7.0,19.0,79,0.00,,,0.00,weatherlink.com 1.10,2013-03-05 00:47:00,
2013-03-04 20:02:00,27.3,22.0,29.65,NNE,18,10.0,19.0,80,0.00,,,0.00,weatherlink.com 1.10,2013-03-05 01:02:00,
2013-03-04 20:17:00,27.0,22.0,29.66,NNE,22,10.0,18.0,81,0.00,,,0.00,weatherlink.com 1.10,2013-03-05 01:17:00,
2013-03-04 20:32:00,27.1,22.0,29.67,North,355,7.0,17.0,80,0.00,,,0.00,weatherlink.com 1.10,2013-03-05 01:32:00,
2013-03-04 20:47:00,27.0,22.0,29.68,NNW,346,6.0,13.0,80,0.00,,,0.00,weatherlink.com 1.10,2013-03-05 01:47:00,
2013-03-04 21:02:00,27.0,22.0,29.67,North,9,8.0,15.0,80,0.00,,,0.00,weatherlink.com 1.10,2013-03-05 02:02:00,
2013-03-04 21:32:00,27.0,21.0,29.68,NNW,334,14.0,19.0,79,0.00,,,0.00,weatherlink.com 1.10,2013-03-05 02:32:00,
2013-03-04 21:47:00,27.0,21.0,29.68,NNW,337,4.0,18.0,79,0.00,,,0.00,weatherlink.com 1.10,2013-03-05 02:47:00,
2013-03-04 22:17:00,26.3,21.0,29.69,NE,42,4.0,17.0,80,0.00,,,0.00,weatherlink.com 1.10,2013-03-05 03:17:00,
2013-03-04 22:32:00,26.2,21.0,29.69,North,360,7.0,18.0,81,0.00,,,0.00,weatherlink.com 1.10,2013-03-05 03:32:00,
2013-03-04 22:47:00,26.2,21.0,29.69,NW,324,4.0,22.0,81,0.00,,,0.00,weatherlink.com 1.10,2013-03-05 03:47:00,
2013-03-04 23:02:00,26.1,21.0,29.69,North,5,9.0,22.0,80,0.00,,,0.00,weatherlink.com 1.10,2013-03-05 04:02:00,
2013-03-04 23:17:00,26.2,21.0,29.70,WNW,291,4.0,23.0,80,0.00,,,0.00,weatherlink.com 1.10,2013-03-05 04:17:00,
2013-03-04 23:32:00,26.2,21.0,29.70,NNW,333,10.0,18.0,80,0.00,,,0.00,weatherlink.com 1.10,2013-03-05 04:32:00,
2013-03-04 23:47:00,26.2,21.0,29.70,NNW,330,10.0,17.0,80,0.00,,,0.00,weatherlink.com 1.10,2013-03-05 04:47:00,